createdAt,value
2019-05-07T00:01:14.133Z,71.69
2019-05-07T00:03:46.001Z,71.84
2019-05-07T00:06:18.648Z,72.58
2019-05-07T00:08:52.282Z,72.61
2019-05-07T00:11:24.898Z,73.02
2019-05-07T00:13:58.141Z,73.23
2019-05-07T00:16:32.403Z,72.56
2019-05-07T00:19:03.795Z,73.23
2019-05-07T00:21:35.958Z,73.74
2019-05-07T00:24:10.207Z,73.93
2019-05-07T00:26:43.026Z,73.83
2019-05-07T00:29:15.563Z,73.99
2019-05-07T00:31:47.823Z,74.55
2019-05-07T00:34:21.959Z,74.78
2019-05-07T00:36:54.833Z,75.11
2019-05-07T00:39:28.116Z,75.11
2019-05-07T00:42:03.040Z,75.03
2019-05-07T00:44:36.540Z,74.47
2019-05-07T00:47:08.638Z,75.29
2019-05-07T00:49:42.541Z,75.37
2019-05-07T00:52:15.052Z,75.12
2019-05-07T00:54:47.046Z,75.35
2019-05-07T00:57:18.844Z,75.30
2019-05-07T00:59:52.507Z,75.14
2019-05-07T01:02:24.304Z,75.87
2019-05-07T01:04:56.472Z,76.06
2019-05-07T01:07:28.009Z,76.01
2019-05-07T01:10:02.013Z,76.75
2019-05-07T01:12:33.974Z,76.60
2019-05-07T01:15:06.907Z,76.90
2019-05-07T01:17:38.432Z,76.98
2019-05-07T01:20:12.435Z,77.28
2019-05-07T01:22:43.775Z,77.47
2019-05-07T01:25:16.432Z,77.48
2019-05-07T01:27:48.422Z,77.31
2019-05-07T01:30:20.047Z,77.33
2019-05-07T01:32:53.371Z,77.33
2019-05-07T01:35:27.381Z,76.38
2019-05-07T01:37:59.586Z,76.15
2019-05-07T01:40:32.588Z,76.39
2019-05-07T01:43:04.314Z,77.17
2019-05-07T01:45:46.369Z,77.46
2019-05-07T01:48:11.821Z,77.38
2019-05-07T01:50:43.011Z,77.80
2019-05-07T01:53:14.544Z,78.28
2019-05-07T01:55:46.008Z,78.34
2019-05-07T01:58:17.456Z,78.05
2019-05-07T02:00:49.113Z,78.20
2019-05-07T02:03:23.052Z,77.92
2019-05-07T02:05:56.427Z,78.10
2019-05-07T02:08:29.249Z,78.17
2019-05-07T02:11:02.262Z,78.13
2019-05-07T02:13:34.338Z,78.13
2019-05-07T02:16:05.755Z,78.42
2019-05-07T02:18:37.336Z,78.63
2019-05-07T02:21:09.622Z,79.11
2019-05-07T02:23:43.808Z,79.06
2019-05-07T02:26:15.213Z,79.37
2019-05-07T02:28:46.885Z,79.33
2019-05-07T02:31:18.029Z,79.14
2019-05-07T02:33:49.527Z,79.51
2019-05-07T02:36:23.712Z,79.63
2019-05-07T02:38:55.752Z,79.43
2019-05-07T02:41:28.600Z,79.95
2019-05-07T02:44:03.969Z,80.24
2019-05-07T02:46:36.377Z,80.21
2019-05-07T02:49:10.307Z,80.25
2019-05-07T02:51:43.818Z,80.28
2019-05-07T02:54:16.986Z,80.40
2019-05-07T02:56:48.178Z,80.37
2019-05-07T02:59:20.278Z,80.40
2019-05-07T03:01:53.694Z,80.61
2019-05-07T03:04:26.071Z,80.62
2019-05-07T03:06:58.740Z,80.66
2019-05-07T03:09:32.847Z,80.68
2019-05-07T03:12:07.835Z,80.46
2019-05-07T03:14:43.810Z,80.96
2019-05-07T03:17:14.227Z,81.04
2019-05-07T03:19:48.049Z,81.18
2019-05-07T03:22:23.052Z,81.45
2019-05-07T03:24:54.406Z,81.63
2019-05-07T03:27:26.065Z,81.61
2019-05-07T03:29:59.037Z,81.88
2019-05-07T03:32:38.107Z,81.86
2019-05-07T03:35:08.534Z,81.82
2019-05-07T03:37:40.307Z,81.80
2019-05-07T03:40:14.236Z,81.68
2019-05-07T03:42:44.869Z,82.00
2019-05-07T03:45:18.473Z,81.89
2019-05-07T03:47:54.124Z,82.02
2019-05-07T03:50:24.002Z,82.12
2019-05-07T03:52:55.731Z,82.15
2019-05-07T03:55:27.241Z,82.41
2019-05-07T03:57:58.542Z,82.44
2019-05-07T04:00:33.048Z,82.48
2019-05-07T04:03:03.674Z,82.43
2019-05-07T04:05:35.442Z,82.43
2019-05-07T04:08:06.689Z,82.25
2019-05-07T04:10:38.520Z,82.12
2019-05-07T04:13:13.244Z,82.00
2019-05-07T04:15:44.250Z,81.83
2019-05-07T04:18:16.328Z,81.69
2019-05-07T04:20:47.894Z,81.44
2019-05-07T04:23:22.947Z,81.28
2019-05-07T04:25:54.629Z,80.92
2019-05-07T04:28:28.650Z,80.89
2019-05-07T04:31:02.930Z,80.25
2019-05-07T04:33:36.097Z,79.88
2019-05-07T04:36:08.819Z,79.66
2019-05-07T04:38:43.930Z,79.49
2019-05-07T04:41:16.389Z,78.86
2019-05-07T04:43:47.814Z,78.73
2019-05-07T04:46:19.468Z,78.50
2019-05-07T04:48:52.848Z,78.51
2019-05-07T04:51:25.588Z,78.75
2019-05-07T04:53:58.558Z,78.81
2019-05-07T04:56:30.013Z,78.85
2019-05-07T04:59:03.649Z,78.32
2019-05-07T05:01:38.142Z,78.06
2019-05-07T05:04:25.816Z,77.55
2019-05-07T05:06:44.432Z,77.25
2019-05-07T05:09:15.781Z,77.00
2019-05-07T05:11:47.166Z,76.88
2019-05-07T05:14:18.375Z,75.96
2019-05-07T05:16:52.495Z,75.21
2019-05-07T05:19:24.012Z,74.92
2019-05-07T05:21:56.950Z,74.82
2019-05-07T05:24:32.802Z,74.99
2019-05-07T05:27:05.136Z,74.80
2019-05-07T05:29:38.754Z,74.14
2019-05-07T05:32:12.050Z,74.06
2019-05-07T05:34:43.881Z,74.29
2019-05-07T05:37:16.679Z,74.62
2019-05-07T05:40:02.508Z,74.50
2019-05-07T05:42:24.273Z,74.86
2019-05-07T05:44:56.200Z,74.52
2019-05-07T05:47:27.812Z,74.70
2019-05-07T05:50:01.891Z,74.53
2019-05-07T05:52:34.144Z,73.86
2019-05-07T05:55:08.368Z,74.08
2019-05-07T05:57:42.414Z,73.65
2019-05-07T06:00:16.391Z,72.83
2019-05-07T06:02:52.945Z,72.75
2019-05-07T06:05:24.246Z,72.06
2019-05-07T06:07:57.530Z,72.29
2019-05-07T06:10:32.890Z,72.33
2019-05-07T06:13:05.529Z,71.47
2019-05-07T06:15:39.171Z,71.12
2019-05-07T06:18:20.997Z,70.70
2019-05-07T06:20:49.097Z,70.30
2019-05-07T06:23:22.522Z,69.70
2019-05-07T06:25:54.259Z,69.57
2019-05-07T06:28:26.230Z,69.88
2019-05-07T06:30:57.991Z,69.83
2019-05-07T06:33:32.284Z,69.46
2019-05-07T06:36:04.367Z,69.06
2019-05-07T06:38:37.252Z,69.93
2019-05-07T06:41:12.252Z,69.68
2019-05-07T06:43:45.509Z,69.94
2019-05-07T06:46:17.597Z,69.27
2019-05-07T06:48:49.218Z,69.44
2019-05-07T06:51:22.070Z,69.45
2019-05-07T06:53:53.766Z,69.07
2019-05-07T06:56:26.648Z,69.25
2019-05-07T06:59:02.071Z,69.07
2019-05-07T07:01:34.430Z,68.66
2019-05-07T07:04:07.138Z,68.60
2019-05-07T07:06:42.664Z,68.24
2019-05-07T07:09:16.291Z,67.99
2019-05-07T07:11:49.702Z,63.75
2019-05-07T07:14:22.739Z,65.23
2019-05-07T07:16:55.632Z,63.04
2019-05-07T07:19:32.035Z,61.34
2019-05-07T07:22:04.608Z,61.88
2019-05-07T07:24:36.559Z,61.76
2019-05-07T07:27:09.843Z,61.10
2019-05-07T07:29:44.993Z,61.05
2019-05-07T07:32:22.170Z,60.81
2019-05-07T07:34:55.194Z,58.79
2019-05-07T07:37:29.433Z,58.88
2019-05-07T07:40:02.945Z,57.79
2019-05-07T07:42:36.033Z,57.53
2019-05-07T07:45:12.384Z,57.50
2019-05-07T07:47:44.604Z,57.94
2019-05-07T07:50:16.930Z,56.13
2019-05-07T07:52:49.091Z,56.86
2019-05-07T07:55:23.078Z,54.85
2019-05-07T07:57:56.876Z,54.94
2019-05-07T08:00:32.785Z,55.20
2019-05-07T08:03:06.986Z,53.24
2019-05-07T08:05:45.198Z,53.82
2019-05-07T08:08:16.800Z,52.72
2019-05-07T08:10:48.516Z,53.71
2019-05-07T08:13:19.866Z,53.40
2019-05-07T08:15:53.801Z,53.49
2019-05-07T08:18:25.536Z,53.71
2019-05-07T08:20:58.211Z,54.94
2019-05-07T08:23:31.986Z,54.29
2019-05-07T08:26:05.341Z,52.85
2019-05-07T08:28:38.663Z,53.56
2019-05-07T08:31:12.058Z,53.69
2019-05-07T08:33:45.087Z,53.44
2019-05-07T08:36:18.109Z,54.03
2019-05-07T08:38:52.724Z,55.46
2019-05-07T08:41:28.116Z,52.85
2019-05-07T08:44:11.695Z,53.15
2019-05-07T08:46:36.041Z,53.86
2019-05-07T08:49:12.139Z,54.38
2019-05-07T08:51:46.533Z,55.69
2019-05-07T08:54:18.418Z,55.28
2019-05-07T08:56:52.772Z,54.12
2019-05-07T08:59:25.297Z,53.36
2019-05-07T09:01:58.515Z,52.07
2019-05-07T09:04:32.627Z,50.24
2019-05-07T09:07:04.283Z,50.72
2019-05-07T09:09:36.031Z,49.99
2019-05-07T09:12:07.457Z,48.28
2019-05-07T09:14:42.334Z,49.34
2019-05-07T09:17:13.328Z,49.30
2019-05-07T09:19:51.512Z,51.55
2019-05-07T09:22:19.284Z,51.84
2019-05-07T09:24:53.295Z,51.51
2019-05-07T09:27:26.216Z,52.38
2019-05-07T09:30:02.692Z,53.11
2019-05-07T09:32:38.120Z,53.42
2019-05-07T09:35:12.503Z,52.74
2019-05-07T09:37:45.338Z,51.79
2019-05-07T09:40:17.990Z,51.36
2019-05-07T09:42:49.567Z,50.66
2019-05-07T09:45:22.448Z,49.97
2019-05-07T09:47:54.304Z,49.01
2019-05-07T09:50:25.900Z,49.75
2019-05-07T09:52:57.856Z,50.49
2019-05-07T09:55:32.598Z,51.39
2019-05-07T09:58:04.182Z,51.27
2019-05-07T10:00:39.873Z,48.94
2019-05-07T10:03:12.729Z,47.27
2019-05-07T10:05:45.908Z,46.20
2019-05-07T10:08:17.863Z,44.51
2019-05-07T10:10:52.817Z,45.39
2019-05-07T10:13:26.303Z,45.87
2019-05-07T10:15:59.440Z,46.53
2019-05-07T10:18:32.146Z,47.63
2019-05-07T10:21:02.604Z,47.26
2019-05-07T10:23:35.053Z,45.42
2019-05-07T10:26:05.799Z,42.84
2019-05-07T10:28:36.954Z,43.71
2019-05-07T10:31:09.968Z,43.45
2019-05-07T10:33:42.175Z,41.14
2019-05-07T10:36:16.525Z,41.64
2019-05-07T10:38:48.078Z,42.93
2019-05-07T10:41:22.369Z,42.72
2019-05-07T10:43:54.186Z,42.54
2019-05-07T10:46:25.431Z,42.06
2019-05-07T10:49:01.789Z,41.70
2019-05-07T10:51:33.264Z,41.21
2019-05-07T10:54:06.208Z,40.98
2019-05-07T10:56:37.969Z,41.86
2019-05-07T10:59:12.046Z,42.43
2019-05-07T11:01:43.570Z,41.04
2019-05-07T11:04:17.220Z,39.59
2019-05-07T11:06:49.595Z,40.47
2019-05-07T11:09:22.207Z,42.93
2019-05-07T11:11:54.012Z,43.46
2019-05-07T11:14:25.162Z,43.94
2019-05-07T11:16:58.492Z,42.57
2019-05-07T11:19:32.412Z,42.61
2019-05-07T11:22:06.317Z,42.15
2019-05-07T11:24:38.394Z,41.00
2019-05-07T11:27:11.909Z,41.11
2019-05-07T11:29:43.607Z,39.08
2019-05-07T11:32:16.597Z,39.15
2019-05-07T11:34:49.323Z,38.12
2019-05-07T11:37:22.618Z,40.18
2019-05-07T11:39:55.816Z,39.42
2019-05-07T11:42:30.282Z,39.82
2019-05-07T11:45:03.254Z,35.95
2019-05-07T11:47:36.130Z,35.33
2019-05-07T11:50:08.503Z,34.96
2019-05-07T11:52:42.517Z,35.49
2019-05-07T11:55:14.498Z,35.81
2019-05-07T11:57:45.236Z,36.64
2019-05-07T12:00:21.867Z,35.85
2019-05-07T12:02:53.025Z,35.25
2019-05-07T12:05:25.053Z,36.14
2019-05-07T12:07:57.192Z,34.06
2019-05-07T12:10:28.947Z,34.07
2019-05-07T12:12:59.572Z,33.99
2019-05-07T12:15:32.466Z,35.13
2019-05-07T12:18:04.808Z,34.35
2019-05-07T12:20:36.186Z,32.62
2019-05-07T12:23:07.125Z,34.21
2019-05-07T12:25:37.970Z,33.51
2019-05-07T12:28:08.922Z,32.93
2019-05-07T12:30:42.688Z,32.80
2019-05-07T12:33:15.815Z,32.96
2019-05-07T12:35:47.849Z,33.26
2019-05-07T12:38:18.859Z,33.22
2019-05-07T12:40:52.253Z,31.83
2019-05-07T12:43:23.652Z,31.67
2019-05-07T12:45:54.311Z,33.30
2019-05-07T12:48:24.849Z,32.09
2019-05-07T12:50:55.740Z,31.71
2019-05-07T12:53:28.114Z,31.67
2019-05-07T12:56:02.055Z,32.31
2019-05-07T12:58:32.668Z,32.22
2019-05-07T13:01:05.248Z,32.58
2019-05-07T13:03:37.607Z,33.17
2019-05-07T13:06:09.217Z,33.72
2019-05-07T13:08:41.841Z,33.67
2019-05-07T13:11:13.332Z,34.14
2019-05-07T13:13:44.830Z,32.41
2019-05-07T13:16:16.881Z,33.02
2019-05-07T13:18:48.152Z,34.37
2019-05-07T13:21:19.987Z,33.88
2019-05-07T13:23:52.068Z,31.55
2019-05-07T13:26:24.489Z,32.83
2019-05-07T13:28:56.320Z,31.91
2019-05-07T13:31:27.886Z,32.39
2019-05-07T13:34:02.851Z,33.24
2019-05-07T13:36:33.072Z,32.26
2019-05-07T13:39:07.527Z,33.22
2019-05-07T13:41:40.371Z,32.54
2019-05-07T13:44:12.783Z,33.32
2019-05-07T13:46:45.030Z,32.42
2019-05-07T13:49:15.270Z,33.51
2019-05-07T13:51:45.432Z,33.56
2019-05-07T13:54:15.921Z,32.44
2019-05-07T13:56:48.786Z,33.34
2019-05-07T13:59:22.334Z,33.00
2019-05-07T14:01:55.005Z,34.18
2019-05-07T14:04:25.793Z,33.54
2019-05-07T14:06:57.901Z,33.88
2019-05-07T14:09:29.500Z,34.09
2019-05-07T14:12:01.889Z,34.98
2019-05-07T14:14:34.517Z,33.72
2019-05-07T14:17:04.228Z,33.13
2019-05-07T14:19:34.351Z,31.62
2019-05-07T14:22:15.299Z,31.69
2019-05-07T14:24:37.591Z,31.60
2019-05-07T14:27:07.977Z,32.18
2019-05-07T14:29:39.352Z,33.10
2019-05-07T14:32:12.777Z,33.17
2019-05-07T14:34:44.705Z,32.73
2019-05-07T14:37:22.000Z,33.37
2019-05-07T14:39:52.905Z,34.10
2019-05-07T14:42:24.660Z,33.35
2019-05-07T14:44:54.854Z,34.08
2019-05-07T14:47:25.107Z,33.53
2019-05-07T14:49:55.155Z,31.91
2019-05-07T14:52:32.203Z,33.18
2019-05-07T14:54:58.805Z,33.09
2019-05-07T14:57:28.973Z,32.28
2019-05-07T14:59:59.081Z,32.17
2019-05-07T15:02:32.453Z,32.28
2019-05-07T15:05:05.030Z,33.51
2019-05-07T15:07:36.550Z,33.70
2019-05-07T15:10:08.061Z,33.32
2019-05-07T15:12:46.318Z,33.94
2019-05-07T15:15:16.485Z,33.54
2019-05-07T15:17:48.127Z,34.02
2019-05-07T15:20:18.196Z,33.16
2019-05-07T15:22:52.610Z,33.86
2019-05-07T15:25:22.781Z,33.04
2019-05-07T15:27:54.176Z,31.81
2019-05-07T15:30:26.273Z,32.05
2019-05-07T15:32:56.444Z,32.86
2019-05-07T15:35:27.809Z,32.00
2019-05-07T15:37:57.931Z,33.62
2019-05-07T15:40:29.292Z,32.15
2019-05-07T15:43:02.032Z,32.48
2019-05-07T15:45:32.726Z,32.97
2019-05-07T15:48:02.807Z,33.13
2019-05-07T15:50:34.380Z,32.43
2019-05-07T15:53:07.132Z,33.17
2019-05-07T15:55:37.879Z,33.08
2019-05-07T15:58:08.681Z,33.48
2019-05-07T16:00:42.419Z,32.58
2019-05-07T16:03:15.399Z,33.43
2019-05-07T16:05:48.229Z,32.55
2019-05-07T16:08:22.643Z,33.01
2019-05-07T16:10:53.198Z,32.97
2019-05-07T16:13:25.799Z,33.44
2019-05-07T16:16:02.211Z,33.85
2019-05-07T16:18:35.359Z,32.23
2019-05-07T16:21:05.582Z,32.63
2019-05-07T16:23:36.317Z,31.39
2019-05-07T16:26:06.622Z,32.12
2019-05-07T16:28:37.021Z,30.96
2019-05-07T16:31:07.709Z,31.85
2019-05-07T16:33:38.743Z,32.27
2019-05-07T16:36:09.549Z,34.57
2019-05-07T16:38:41.970Z,36.86
2019-05-07T16:41:13.561Z,38.30
2019-05-07T16:43:44.656Z,39.35
2019-05-07T16:46:15.433Z,39.99
2019-05-07T16:48:45.560Z,40.86
2019-05-07T16:51:16.443Z,41.70
2019-05-07T16:53:47.315Z,41.74
2019-05-07T16:56:18.246Z,42.17
2019-05-07T16:58:52.222Z,43.06
2019-05-07T17:01:22.198Z,43.02
2019-05-07T17:03:55.775Z,43.46
2019-05-07T17:06:27.527Z,43.71
2019-05-07T17:09:02.784Z,43.82
2019-05-07T17:11:34.821Z,43.67
2019-05-07T17:14:06.737Z,44.51
2019-05-07T17:16:38.632Z,43.83
2019-05-07T17:19:11.751Z,44.98
2019-05-07T17:21:43.065Z,44.17
2019-05-07T17:24:13.977Z,44.73
2019-05-07T17:26:45.801Z,44.75
2019-05-07T17:29:17.731Z,45.39
2019-05-07T17:31:48.686Z,45.22
2019-05-07T17:34:19.401Z,45.00
2019-05-07T17:36:52.415Z,45.58
2019-05-07T18:48:59.716Z,52.10
2019-05-07T18:51:32.397Z,52.45
2019-05-07T18:54:03.731Z,53.40
2019-05-07T18:56:44.224Z,53.18
2019-05-07T18:59:22.048Z,53.84
2019-05-07T19:01:53.909Z,54.46
2019-05-07T19:04:25.185Z,55.96
2019-05-07T19:06:56.940Z,56.48
2019-05-07T19:09:27.980Z,57.35
2019-05-07T19:11:59.712Z,58.25
2019-05-07T19:14:33.144Z,58.76
2019-05-07T19:17:03.308Z,58.86
2019-05-07T19:19:34.961Z,58.34
2019-05-07T19:22:06.752Z,58.45
2019-05-07T19:24:45.238Z,59.31
2019-05-07T19:27:12.718Z,59.45
2019-05-07T19:29:45.865Z,59.66
2019-05-07T19:32:16.983Z,59.91
2019-05-07T19:34:48.344Z,61.10
2019-05-07T19:37:19.785Z,61.81
2019-05-07T19:39:55.368Z,61.62
2019-05-07T19:42:27.164Z,62.32
2019-05-07T19:45:12.780Z,62.80
2019-05-07T19:47:43.814Z,62.69
2019-05-07T19:50:16.021Z,63.11
2019-05-07T19:52:48.652Z,64.25
2019-05-07T19:55:22.037Z,64.55
2019-05-07T19:57:55.012Z,64.28
2019-05-07T20:00:28.934Z,64.60
2019-05-07T20:03:03.388Z,64.66
2019-05-07T20:05:37.253Z,64.68
2019-05-07T20:08:08.672Z,64.41
2019-05-07T20:10:42.231Z,64.71
2019-05-07T20:13:14.633Z,65.40
2019-05-07T20:15:49.054Z,65.60
2019-05-07T20:18:22.011Z,65.48
2019-05-07T20:21:04.000Z,65.39
2019-05-07T20:23:35.775Z,65.13
2019-05-07T20:26:22.900Z,65.40
2019-05-07T20:29:12.307Z,65.22
2019-05-07T20:31:48.701Z,65.53
2019-05-07T20:34:22.110Z,66.47
2019-05-07T20:37:12.934Z,66.59
2019-05-07T20:39:55.644Z,67.11
2019-05-07T20:42:56.936Z,67.33
2019-05-07T20:45:47.736Z,67.51
2019-05-07T20:48:22.750Z,67.30
2019-05-07T20:50:54.695Z,67.74
2019-05-07T20:53:36.289Z,68.04
2019-05-07T20:56:15.945Z,68.26
2019-05-07T20:58:47.089Z,68.37
2019-05-07T21:01:18.233Z,68.47
2019-05-07T21:03:52.741Z,68.71
2019-05-07T21:06:27.034Z,69.07
2019-05-07T21:09:00.434Z,69.09
2019-05-07T21:11:33.984Z,68.99
2019-05-07T21:14:06.466Z,68.61
2019-05-07T21:16:42.623Z,69.01
2019-05-07T21:19:14.667Z,69.90
2019-05-07T21:21:47.222Z,69.15
2019-05-07T21:24:22.392Z,69.94
2019-05-07T21:26:53.310Z,70.48
2019-05-07T21:29:25.100Z,70.36
2019-05-07T21:31:57.515Z,70.54
2019-05-07T21:34:29.099Z,70.71
2019-05-07T21:37:03.076Z,70.94
2019-05-07T21:39:34.507Z,70.84
2019-05-07T21:42:06.963Z,71.37
2019-05-07T21:44:39.361Z,71.21
2019-05-07T21:47:12.665Z,71.37
2019-05-07T21:49:46.115Z,72.14
2019-05-07T21:52:19.524Z,71.67
2019-05-07T21:54:52.713Z,71.62
2019-05-07T21:57:27.285Z,72.13
2019-05-07T22:00:02.289Z,72.18
2019-05-07T22:02:35.238Z,72.50
2019-05-07T22:05:07.637Z,71.98
2019-05-07T22:07:39.936Z,72.60
2019-05-07T22:10:12.804Z,72.47
2019-05-07T22:12:46.034Z,72.04
2019-05-07T22:15:22.285Z,72.47
2019-05-07T22:17:53.836Z,72.42
2019-05-07T22:20:26.528Z,73.01
2019-05-07T22:22:58.815Z,73.27
2019-05-07T22:25:32.833Z,73.38
2019-05-07T22:28:05.699Z,73.15
2019-05-07T22:30:41.778Z,73.18
2019-05-07T22:33:14.553Z,73.16
2019-05-07T22:35:48.201Z,73.19
2019-05-07T22:38:22.806Z,74.03
2019-05-07T22:40:55.041Z,74.19
2019-05-07T22:43:27.125Z,74.62
2019-05-07T22:45:59.118Z,74.93
2019-05-07T22:48:32.551Z,75.09
2019-05-07T22:51:04.941Z,75.42
2019-05-07T22:53:36.847Z,75.36
2019-05-07T22:56:08.820Z,75.84
2019-05-07T22:58:43.539Z,75.64
2019-05-07T23:01:17.842Z,75.32
2019-05-07T23:03:51.853Z,76.05
2019-05-07T23:06:23.415Z,76.96
2019-05-07T23:08:55.270Z,76.17
2019-05-07T23:11:26.158Z,75.71
2019-05-07T23:13:58.740Z,75.41
2019-05-07T23:16:32.468Z,75.77
2019-05-07T23:19:04.664Z,75.79
2019-05-07T23:21:36.278Z,76.10
2019-05-07T23:24:07.886Z,75.90
2019-05-07T23:26:49.677Z,75.16
2019-05-07T23:29:13.785Z,75.28
2019-05-07T23:31:45.597Z,75.65
2019-05-07T23:34:18.739Z,75.75
2019-05-07T23:36:50.251Z,75.30
2019-05-07T23:39:23.943Z,75.72
2019-05-07T23:41:58.078Z,75.75
2019-05-07T23:44:29.947Z,75.97
2019-05-07T23:47:02.733Z,76.15
2019-05-07T23:49:36.339Z,76.02
2019-05-07T23:52:08.403Z,76.35
2019-05-07T23:54:42.527Z,76.67
2019-05-07T23:57:15.371Z,76.93
2019-05-07T23:59:47.094Z,76.45
